Search for airport 
image banner adimage banner adimage banner ad
image banner ad

KSIY - Siskiyou County

Located in Montague, United States

ICAO - SIY, IATA -

Data provided by Airmate  

General information

Coordinates: N41°46'53" W122°28'5"
Elevation is 2651 feet MSL.
Magnetic variation is 19° East
View others Airports in California

Operational data

Special qualification required
Current time UTC:
Current local time:
Weather
METAR: KSIY 191153Z AUTO 02005KT 10SM CLR 01/M01 A2995 RMK AO2 SLP156 T00111006 10044 20011 58015
View NOTAMs / SUP AIP / TFR affecting this airport [VIEW]
Communications frequencies: [VIEW]

Runways:

RWY identifierQFULength (ft)Width (ft)SurfaceLDA (ft)
17191°7490150ASPH
3511°7490150ASPH

Airport contact information

Address: Montague United States

Satellite view of KSIY